Time;durP1;ratioP1;P1;durP2;ratioP2;P2;SDS_P1;SDS_P2;PMS_P1;PMS_P2;Temp;Humidity;BMP_temperature;BMP_pressure;BME280_temperature;BME280_humidity;BME280_pressure;Samples;Min_cycle;Max_cycle;Signal;HPM_P1;HPM_P2
2023/07/10 00:00:24;;;;;;;40.80;21.98;;;19.60;99.90;;;;;;5135340;27;20047;-70
2023/07/10 00:02:50;;;;;;;40.38;21.65;;;20.20;99.90;;;;;;5116875;27;20566;-70
2023/07/10 00:05:18;;;;;;;50.85;21.85;;;19.20;99.90;;;;;;5117905;27;20057;-70
2023/07/10 00:07:45;;;;;;;46.42;22.10;;;;;;;;;;5124902;27;20091;-70
2023/07/10 00:10:13;;;;;;;46.53;23.00;;;19.40;99.90;;;;;;5135563;27;20478;-70
2023/07/10 00:12:41;;;;;;;42.50;21.90;;;18.10;99.90;;;;;;5135320;27;20531;-71
2023/07/10 00:15:20;;;;;;;44.10;22.58;;;19.20;99.90;;;;;;5135698;27;20453;-70
2023/07/10 00:17:51;;;;;;;39.92;22.02;;;19.00;99.90;;;;;;5103707;27;20047;-70
2023/07/10 00:20:23;;;;;;;40.45;20.88;;;18.40;99.90;;;;;;5123883;27;20039;-70
2023/07/10 00:22:49;;;;;;;40.13;21.13;;;18.00;99.90;;;;;;5116985;27;20083;-70
2023/07/10 00:25:15;;;;;;;42.05;21.90;;;;;;;;;;5133254;27;20034;-70
2023/07/10 00:27:43;;;;;;;43.28;21.83;;;18.00;99.90;;;;;;5131406;27;20039;-70
2023/07/10 00:30:21;;;;;;;46.10;20.20;;;18.90;99.90;;;;;;5117721;27;20042;-71
2023/07/10 00:32:52;;;;;;;44.90;20.80;;;19.10;99.90;;;;;;5116517;27;20039;-70
2023/07/10 00:35:19;;;;;;;41.03;21.10;;;20.10;99.90;;;;;;5118908;27;20092;-71
2023/07/10 00:37:47;;;;;;;49.30;20.83;;;18.50;99.90;;;;;;5117547;27;20049;-71
2023/07/10 00:40:22;;;;;;;43.92;20.30;;;20.20;99.90;;;;;;5116262;27;20566;-71
2023/07/10 00:42:53;;;;;;;35.30;19.45;;;19.40;99.90;;;;;;5117387;27;20505;-71
2023/07/10 00:45:20;;;;;;;37.72;19.75;;;20.00;99.90;;;;;;5113349;27;20036;-71
2023/07/10 00:48:00;;;;;;;32.78;18.63;;;19.30;99.90;;;;;;5118187;27;20035;-71
2023/07/10 00:50:37;;;;;;;37.00;18.00;;;20.10;99.90;;;;;;5116366;27;20130;-70
2023/07/10 00:53:09;;;;;;;35.45;17.15;;;19.00;99.90;;;;;;5098294;27;20096;-71
2023/07/10 00:55:37;;;;;;;35.38;17.13;;;19.60;99.90;;;;;;5115944;27;20163;-71
2023/07/10 00:58:15;;;;;;;34.15;17.08;;;19.90;99.90;;;;;;5112112;27;20097;-71
2023/07/10 01:01:08;;;;;;;33.90;17.13;;;17.90;99.90;;;;;;5116854;27;20055;-71
2023/07/10 01:03:35;;;;;;;41.78;15.63;;;18.60;99.90;;;;;;5134564;27;20078;-71
2023/07/10 01:06:07;;;;;;;31.95;15.88;;;18.30;99.90;;;;;;5133140;27;20030;-71
2023/07/10 01:08:35;;;;;;;27.10;13.65;;;17.90;99.90;;;;;;5132265;27;20550;-71
2023/07/10 01:11:01;;;;;;;27.75;12.85;;;18.90;99.90;;;;;;5117199;27;20045;-71
2023/07/10 01:13:27;;;;;;;21.70;11.88;;;;;;;;;;5134237;27;20030;-71
2023/07/10 01:15:52;;;;;;;24.83;11.68;;;19.50;99.90;;;;;;5122015;27;20478;-71
2023/07/10 01:18:19;;;;;;;19.88;10.05;;;;;;;;;;5111626;27;20049;-71
2023/07/10 01:20:47;;;;;;;25.63;10.85;;;18.70;99.90;;;;;;5134190;27;20038;-71
2023/07/10 01:23:15;;;;;;;18.17;10.45;;;18.80;99.90;;;;;;5134381;27;20411;-71
2023/07/10 01:25:47;;;;;;;24.20;10.50;;;18.90;99.90;;;;;;5129269;27;20125;-71
2023/07/10 01:28:16;;;;;;;22.15;9.48;;;18.80;99.90;;;;;;5132404;27;20501;-71
2023/07/10 01:30:44;;;;;;;20.05;9.25;;;18.80;99.90;;;;;;5116481;28;20593;-71
2023/07/10 01:33:16;;;;;;;20.40;10.57;;;18.40;99.90;;;;;;5130782;27;20039;-71
2023/07/10 01:35:43;;;;;;;;;;;18.70;99.90;;;;;;5125643;27;20522;-71
2023/07/10 01:38:13;;;;;;;20.70;10.23;;;18.80;99.90;;;;;;5115709;27;20424;-71
2023/07/10 01:40:43;;;;;;;18.80;8.50;;;19.00;99.90;;;;;;5123135;27;20041;-71
2023/07/10 01:43:09;;;;;;;19.17;8.10;;;19.00;99.90;;;;;;5133175;27;20046;-71
2023/07/10 01:45:44;;;;;;;15.65;7.13;;;18.70;99.90;;;;;;5126222;27;20035;-71
2023/07/10 01:48:12;;;;;;;16.98;8.68;;;19.40;99.90;;;;;;5128287;27;20103;-71
2023/07/10 01:50:38;;;;;;;19.30;7.43;;;19.00;99.90;;;;;;5115305;27;20039;-71
2023/07/10 01:53:04;;;;;;;19.77;6.95;;;;;;;;;;5111056;28;20038;-74
2023/07/10 01:55:33;;;;;;;18.15;7.25;;;18.80;99.90;;;;;;5123354;27;20081;-74
2023/07/10 01:57:59;;;;;;;16.23;7.72;;;;;;;;;;5127504;27;20039;-74
2023/07/10 02:00:25;;;;;;;15.77;7.43;;;17.60;99.90;;;;;;5101246;28;20055;-73
2023/07/10 02:02:51;;;;;;;14.18;7.07;;;;;;;;;;5121352;28;20036;-74
2023/07/10 02:05:17;;;;;;;17.15;7.60;;;;;;;;;;5114054;27;20039;-74
2023/07/10 02:07:42;;;;;;;12.48;6.40;;;19.30;99.90;;;;;;5121352;27;20038;-74
2023/07/10 02:10:09;;;;;;;15.38;6.40;;;17.50;99.90;;;;;;5126963;27;20035;-74
2023/07/10 02:12:34;;;;;;;13.13;5.82;;;17.50;99.90;;;;;;5129482;27;20095;-74
2023/07/10 02:15:00;;;;;;;17.77;7.50;;;;;;;;;;5127139;27;20031;-74
2023/07/10 02:17:26;;;;;;;14.25;5.95;;;18.00;99.90;;;;;;5124388;27;20510;-73
2023/07/10 02:19:52;;;;;;;14.57;5.70;;;;;;;;;;5125935;27;20031;-73
2023/07/10 02:22:18;;;;;;;10.80;4.65;;;18.60;99.90;;;;;;5123911;27;20046;-73
2023/07/10 02:24:44;;;;;;;14.70;4.47;;;;;;;;;;5109740;27;20035;-73
2023/07/10 02:27:09;;;;;;;11.43;4.28;;;17.10;99.90;;;;;;5111055;27;20107;-74
2023/07/10 02:29:36;;;;;;;11.10;3.80;;;;;;;;;;5123612;27;20035;-74
2023/07/10 02:32:02;;;;;;;10.02;5.10;;;17.10;99.90;;;;;;5121631;27;20077;-73
2023/07/10 02:34:28;;;;;;;11.18;4.65;;;19.20;99.90;;;;;;5106267;28;20451;-73
2023/07/10 02:36:54;;;;;;;11.30;3.50;;;;;;;;;;5127472;27;20047;-73
2023/07/10 02:39:20;;;;;;;10.15;4.18;;;17.20;99.90;;;;;;5129961;27;20036;-73
2023/07/10 02:41:45;;;;;;;9.57;4.47;;;17.00;99.90;;;;;;5104527;28;20036;-73
2023/07/10 02:44:11;;;;;;;9.02;4.82;;;;;;;;;;5105787;27;20045;-74
2023/07/10 02:46:37;;;;;;;8.57;4.55;;;19.00;99.90;;;;;;5109486;27;20043;-75
2023/07/10 02:49:03;;;;;;;10.35;5.93;;;;;;;;;;5124120;27;20398;-75
2023/07/10 02:51:29;;;;;;;11.77;5.03;;;;;;;;;;5118141;27;20456;-74
2023/07/10 02:53:55;;;;;;;15.32;5.30;;;18.90;99.90;;;;;;5128609;27;20034;-73
2023/07/10 02:56:21;;;;;;;12.23;4.97;;;;;;;;;;5121240;27;20486;-74
2023/07/10 02:58:51;;;;;;;11.13;5.50;;;17.90;99.90;;;;;;5106682;27;20035;-74
2023/07/10 03:01:17;;;;;;;14.60;5.10;;;18.70;99.90;;;;;;5108928;27;20086;-74
2023/07/10 03:03:45;;;;;;;12.48;4.82;;;18.20;99.90;;;;;;5130566;27;20468;-74
2023/07/10 03:06:11;;;;;;;12.27;4.97;;;;;;;;;;5108876;27;20103;-74
2023/07/10 03:08:37;;;;;;;13.90;5.30;;;16.90;99.90;;;;;;5117573;27;20047;-75
2023/07/10 03:11:06;;;;;;;14.20;5.40;;;17.30;99.90;;;;;;5119765;27;20392;-74
2023/07/10 03:13:32;;;;;;;11.25;5.25;;;16.90;99.90;;;;;;5128218;27;20167;-74
2023/07/10 03:16:06;;;;;;;12.98;5.72;;;17.20;99.90;;;;;;5122214;27;20143;-74
2023/07/10 03:18:32;;;;;;;12.20;4.88;;;17.80;99.90;;;;;;5109258;28;20043;-74
2023/07/10 03:20:57;;;;;;;17.65;5.32;;;19.10;99.90;;;;;;5120126;27;20039;-74
2023/07/10 03:23:24;;;;;;;11.40;4.60;;;;;;;;;;5108065;27;20043;-74
2023/07/10 03:25:50;;;;;;;11.82;4.55;;;18.50;99.90;;;;;;5119589;27;20038;-74
2023/07/10 03:28:16;;;;;;;12.23;4.75;;;;;;;;;;5119885;27;20032;-74
2023/07/10 03:30:42;;;;;;;12.90;4.95;;;;;;;;;;5125154;27;20032;-74
2023/07/10 03:33:11;;;;;;;14.82;5.18;;;18.00;99.90;;;;;;5102925;27;20042;-74
2023/07/10 03:35:37;;;;;;;13.68;4.63;;;;;;;;;;5124836;27;20036;-71
2023/07/10 03:38:04;;;;;;;15.30;5.13;;;;;;;;;;5122543;27;20046;-70
2023/07/10 03:40:30;;;;;;;11.60;5.47;;;;;;;;;;5132446;27;20039;-71
2023/07/10 03:42:56;;;;;;;15.13;5.88;;;;;;;;;;5114015;27;20039;-71
2023/07/10 03:45:22;;;;;;;11.80;4.55;;;;;;;;;;5114580;27;20122;-71
2023/07/10 03:47:47;;;;;;;12.50;5.63;;;17.80;99.90;;;;;;5120070;27;20058;-71
2023/07/10 03:50:14;;;;;;;13.52;5.03;;;;;;;;;;5126865;27;20040;-71
2023/07/10 03:52:40;;;;;;;11.38;4.75;;;;;;;;;;5124031;27;20047;-71
2023/07/10 03:55:06;;;;;;;22.20;5.78;;;;;;;;;;5132024;27;20494;-71
2023/07/10 03:57:31;;;;;;;13.52;4.65;;;18.20;99.90;;;;;;5127028;27;20040;-71
2023/07/10 03:59:58;;;;;;;15.48;4.97;;;;;;;;;;5096863;27;20063;-71
2023/07/10 04:02:23;;;;;;;18.35;4.57;;;19.00;99.90;;;;;;5117025;27;20478;-70
2023/07/10 04:04:49;;;;;;;16.70;5.05;;;;;;;;;;5130776;27;20042;-71
2023/07/10 04:07:17;;;;;;;12.65;5.10;;;18.90;99.90;;;;;;5118165;27;20039;-71
2023/07/10 04:09:43;;;;;;;13.75;5.18;;;;;;;;;;5100584;27;20039;-71
2023/07/10 04:12:09;;;;;;;16.20;5.53;;;18.90;99.90;;;;;;5104452;27;20118;-71
2023/07/10 04:14:37;;;;;;;18.98;5.82;;;17.90;99.90;;;;;;5117051;27;20200;-71
2023/07/10 04:17:04;;;;;;;19.50;6.55;;;19.00;99.90;;;;;;5124394;27;20039;-71
2023/07/10 04:19:30;;;;;;;18.50;8.02;;;16.90;99.90;;;;;;5116369;27;20498;-71
2023/07/10 04:21:56;;;;;;;20.63;6.13;;;;;;;;;;5099908;27;20168;-71
2023/07/10 04:24:21;;;;;;;14.40;6.78;;;18.70;99.90;;;;;;5108223;27;20041;-71
2023/07/10 04:26:47;;;;;;;14.70;6.78;;;;;;;;;;5128888;27;20114;-71
2023/07/10 04:29:13;;;;;;;17.30;7.93;;;18.80;99.90;;;;;;5112648;27;20430;-71
2023/07/10 04:31:39;;;;;;;20.75;7.90;;;19.00;99.90;;;;;;5122382;27;20043;-70
2023/07/10 04:34:05;;;;;;;19.20;8.75;;;17.20;99.90;;;;;;5132272;27;20130;-70
2023/07/10 04:36:31;;;;;;;18.13;7.45;;;18.00;99.90;;;;;;5099392;27;20049;-71
2023/07/10 04:38:57;;;;;;;25.02;7.57;;;;;;;;;;5103886;27;20043;-71
2023/07/10 04:41:24;;;;;;;18.10;7.38;;;19.10;99.90;;;;;;5111337;27;20098;-71
2023/07/10 04:43:50;;;;;;;16.80;6.82;;;;;;;;;;5117414;27;20047;-71
2023/07/10 04:46:17;;;;;;;16.88;6.70;;;18.00;99.90;;;;;;5116629;27;20058;-72
2023/07/10 04:48:44;;;;;;;15.90;7.20;;;;;;;;;;5105161;27;20038;-72
2023/07/10 04:51:11;;;;;;;15.13;6.63;;;18.20;99.90;;;;;;5101607;27;20043;-72
2023/07/10 04:53:37;;;;;;;19.83;7.68;;;18.60;99.90;;;;;;5116258;27;20053;-72
2023/07/10 04:56:05;;;;;;;18.25;7.20;;;18.30;99.90;;;;;;5116884;27;20412;-72
2023/07/10 04:58:45;;;;;;;20.63;6.90;;;;;;;;;;5134807;27;20335;-70
2023/07/10 05:01:11;;;;;;;17.98;7.15;;;;;;;;;;5112760;27;20051;-74
2023/07/10 05:03:37;;;;;;;22.42;7.55;;;;;;;;;;5135856;27;20038;-75
2023/07/10 05:06:04;;;;;;;20.05;7.97;;;;;;;;;;5134619;27;20104;-74
2023/07/10 05:08:29;;;;;;;20.55;7.45;;;19.00;99.90;;;;;;5135099;27;20040;-74
2023/07/10 05:10:56;;;;;;;26.77;7.43;;;19.40;99.90;;;;;;5135388;27;20510;-74
2023/07/10 05:13:25;;;;;;;21.33;7.28;;;17.60;99.90;;;;;;5101354;27;20483;-74
2023/07/10 05:15:50;;;;;;;23.17;7.53;;;19.30;99.90;;;;;;5115747;27;20383;-74
2023/07/10 05:18:17;;;;;;;19.63;7.72;;;;;;;;;;5131976;27;20046;-75
2023/07/10 05:20:47;;;;;;;22.30;7.22;;;19.30;99.90;;;;;;5116912;27;20087;-74
2023/07/10 05:23:14;;;;;;;21.15;6.72;;;;;;;;;;5130577;27;20035;-74
2023/07/10 05:25:40;;;;;;;27.33;7.82;;;;;;;;;;5135601;27;20046;-74
2023/07/10 05:28:06;;;;;;;21.88;6.93;;;17.90;99.90;;;;;;5135627;27;20046;-74
2023/07/10 05:30:32;;;;;;;28.42;7.28;;;;;;;;;;5136463;27;20035;-74
2023/07/10 05:32:58;;;;;;;24.15;6.90;;;;;;;;;;5118969;27;20074;-74
2023/07/10 05:35:24;;;;;;;18.02;7.40;;;17.50;99.90;;;;;;5118937;27;20074;-75
2023/07/10 05:37:50;;;;;;;23.45;7.85;;;;;;;;;;5125698;27;20082;-74
2023/07/10 05:40:16;;;;;;;23.20;7.57;;;;;;;;;;5126417;27;20042;-74
2023/07/10 05:42:43;;;;;;;23.35;6.95;;;19.10;99.90;;;;;;5119705;27;20066;-74
2023/07/10 05:45:09;;;;;;;15.77;7.18;;;;;;;;;;5102618;27;20045;-74
2023/07/10 05:47:35;;;;;;;21.17;7.50;;;;;;;;;;5132019;27;20454;-74
2023/07/10 05:50:01;;;;;;;22.98;7.32;;;;;;;;;;5120023;27;20039;-74
2023/07/10 05:52:27;;;;;;;24.60;7.55;;;17.40;99.90;;;;;;5122563;27;20042;-74
2023/07/10 05:54:53;;;;;;;18.85;6.90;;;;;;;;;;5132308;27;20043;-74
2023/07/10 05:57:19;;;;;;;21.30;6.55;;;;;;;;;;5130971;27;20103;-74
2023/07/10 05:59:45;;;;;;;21.75;6.15;;;;;;;;;;5136040;27;20035;-74
2023/07/10 06:02:11;;;;;;;28.33;7.13;;;17.60;99.90;;;;;;5138933;27;20432;-73
2023/07/10 06:04:38;;;;;;;23.30;6.88;;;19.00;99.90;;;;;;5133539;27;20047;-75
2023/07/10 06:07:05;;;;;;;28.25;7.10;;;;;;;;;;5139658;27;20049;-74
2023/07/10 06:09:31;;;;;;;28.27;6.88;;;;;;;;;;5131727;27;20509;-74
2023/07/10 06:11:57;;;;;;;19.60;6.95;;;18.90;99.90;;;;;;5123304;27;20057;-75
2023/07/10 06:14:23;;;;;;;26.45;7.10;;;19.60;99.90;;;;;;5121523;27;20475;-74
2023/07/10 06:16:49;;;;;;;23.40;6.53;;;;;;;;;;5121018;27;20047;-74
2023/07/10 06:19:16;;;;;;;26.15;6.05;;;19.40;99.90;;;;;;5123829;27;20035;-75
2023/07/10 06:21:42;;;;;;;19.35;6.18;;;18.40;99.90;;;;;;5102655;27;20046;-74
2023/07/10 06:24:08;;;;;;;19.67;5.90;;;;;;;;;;5132396;27;20115;-74
2023/07/10 06:26:34;;;;;;;20.38;5.00;;;;;;;;;;5122749;27;20079;-74
2023/07/10 06:29:00;;;;;;;28.52;6.25;;;19.10;99.90;;;;;;5122501;27;20081;-75
2023/07/10 06:31:26;;;;;;;30.48;6.32;;;;;;;;;;5119195;27;20071;-74
2023/07/10 06:33:52;;;;;;;29.38;6.32;;;;;;;;;;5118786;27;20089;-74
2023/07/10 06:36:18;;;;;;;22.67;6.88;;;;;;;;;;5119097;27;20062;-74
2023/07/10 06:38:44;;;;;;;24.50;6.03;;;;;;;;;;5127233;27;20038;-74
2023/07/10 06:41:12;;;;;;;21.40;6.05;;;;;;;;;;5139203;27;20522;-74
2023/07/10 06:43:38;;;;;;;31.23;5.95;;;19.90;99.90;;;;;;5134082;27;20043;-73
2023/07/10 06:46:04;;;;;;;21.65;6.70;;;;;;;;;;5139237;27;20035;-74
2023/07/10 06:48:30;;;;;;;28.73;6.68;;;;;;;;;;5131470;27;20043;-74
2023/07/10 06:50:56;;;;;;;32.33;5.93;;;18.20;99.90;;;;;;5139036;27;20038;-75
2023/07/10 06:53:23;;;;;;;21.35;5.85;;;19.20;99.90;;;;;;5135601;27;20031;-74
2023/07/10 06:55:59;;;;;;;27.50;5.88;;;20.20;99.90;;;;;;5126093;27;20035;-74
2023/07/10 06:58:25;;;;;;;25.92;5.50;;;19.80;99.90;;;;;;5114171;27;20382;-75
2023/07/10 07:00:51;;;;;;;18.98;5.88;;;18.60;99.90;;;;;;5121511;27;20405;-74
2023/07/10 07:03:17;;;;;;;26.00;5.45;;;19.60;99.90;;;;;;5120204;27;20487;-74
2023/07/10 07:05:44;;;;;;;21.25;5.43;;;19.00;99.90;;;;;;5126439;27;20042;-74
2023/07/10 07:08:10;;;;;;;24.35;5.85;;;19.20;99.90;;;;;;5117698;27;20100;-74
2023/07/10 07:10:40;;;;;;;29.45;5.85;;;20.00;99.90;;;;;;5117847;27;20563;-74
2023/07/10 07:13:06;;;;;;;26.98;6.20;;;18.30;99.90;;;;;;5102875;27;20042;-74
2023/07/10 07:15:32;;;;;;;25.73;5.38;;;;;;;;;;5137960;27;20065;-74
2023/07/10 07:17:57;;;;;;;27.02;5.88;;;20.10;99.90;;;;;;5129953;27;20041;-74
2023/07/10 07:20:24;;;;;;;38.88;6.43;;;;;;;;;;5135154;27;20034;-74
2023/07/10 07:22:49;;;;;;;29.70;5.93;;;20.10;99.90;;;;;;5138375;27;20074;-74
2023/07/10 07:25:16;;;;;;;24.83;5.88;;;;;;;;;;5122651;27;20073;-74
2023/07/10 07:27:42;;;;;;;29.25;5.68;;;20.50;99.90;;;;;;5101024;27;20084;-74
2023/07/10 07:30:09;;;;;;;27.98;6.00;;;19.30;99.90;;;;;;5124955;27;20038;-71
2023/07/10 07:32:35;;;;;;;26.80;6.15;;;;;;;;;;5117391;27;20403;-71
2023/07/10 07:35:01;;;;;;;27.88;5.63;;;;;;;;;;5137704;27;20038;-71
2023/07/10 07:37:27;;;;;;;26.33;6.85;;;19.90;99.90;;;;;;5120067;27;20083;-71
2023/07/10 07:39:56;;;;;;;29.77;6.30;;;20.00;99.90;;;;;;5121809;27;20035;-71
2023/07/10 07:42:22;;;;;;;31.85;6.10;;;;;;;;;;5086619;27;20043;-71
2023/07/10 07:44:48;;;;;;;28.90;7.78;;;;;;;;;;5126965;27;20073;-71
2023/07/10 07:47:16;;;;;;;33.83;6.10;;;19.90;99.90;;;;;;5120927;27;20034;-72
2023/07/10 07:49:42;;;;;;;33.05;6.60;;;;;;;;;;5112728;27;20035;-72
2023/07/10 07:52:08;;;;;;;23.65;6.10;;;;;;;;;;5118523;27;20538;-72
2023/07/10 07:54:34;;;;;;;29.42;7.00;;;20.70;99.90;;;;;;5135838;27;20121;-75
2023/07/10 07:57:00;;;;;;;23.20;6.72;;;20.70;99.90;;;;;;5117507;27;20513;-72
2023/07/10 07:59:26;;;;;;;31.38;6.20;;;;;;;;;;5110987;27;20036;-71
2023/07/10 08:01:52;;;;;;;25.83;5.47;;;20.10;99.90;;;;;;5133709;27;20051;-71
2023/07/10 08:04:19;;;;;;;25.88;7.40;;;20.00;99.90;;;;;;5101644;27;20042;-70
2023/07/10 08:06:46;;;;;;;24.85;6.88;;;20.80;99.90;;;;;;5133993;27;20482;-71
2023/07/10 08:09:12;;;;;;;27.00;6.55;;;19.00;99.90;;;;;;5121629;27;20536;-71
2023/07/10 08:11:38;;;;;;;34.72;6.63;;;;;;;;;;5141671;27;20043;-71
2023/07/10 08:14:04;;;;;;;39.92;6.88;;;19.50;99.90;;;;;;5122585;27;20049;-71
2023/07/10 08:16:30;;;;;;;32.28;7.00;;;;;;;;;;5142179;27;20038;-71
2023/07/10 08:18:56;;;;;;;22.27;5.75;;;19.90;99.90;;;;;;5152113;27;20438;-71
2023/07/10 08:21:21;;;;;;;21.55;5.68;;;21.00;99.90;;;;;;5143927;27;20091;-72
2023/07/10 08:23:48;;;;;;;36.53;6.72;;;;;;;;;;5103778;27;20035;-72
2023/07/10 08:26:14;;;;;;;31.45;6.57;;;21.30;99.90;;;;;;5144551;27;20126;-71
2023/07/10 08:28:40;;;;;;;36.30;6.20;;;;;;;;;;5147357;27;20074;-71
2023/07/10 08:31:09;;;;;;;29.58;6.38;;;20.10;99.90;;;;;;5139307;27;20075;-71
2023/07/10 08:33:35;;;;;;;27.23;6.00;;;;;;;;;;5149112;27;20038;-71
2023/07/10 08:36:06;;;;;;;29.42;6.00;;;20.90;99.90;;;;;;5147739;27;20035;-71
2023/07/10 08:38:34;;;;;;;31.75;6.22;;;21.00;99.90;;;;;;5137621;27;20038;-72
2023/07/10 08:41:03;;;;;;;32.65;6.10;;;21.40;99.90;;;;;;5134169;27;20038;-72
2023/07/10 08:43:38;;;;;;;26.67;5.65;;;20.70;99.90;;;;;;5149005;27;20034;-71
2023/07/10 08:46:20;;;;;;;28.63;6.53;;;20.10;99.90;;;;;;5137658;27;20035;-72
2023/07/10 08:49:14;;;;;;;31.48;6.32;;;21.10;99.90;;;;;;5125938;27;20097;-71
2023/07/10 08:51:49;;;;;;;42.20;6.18;;;21.00;99.90;;;;;;5128351;27;20122;-72
2023/07/10 08:54:18;;;;;;;33.53;7.00;;;20.90;99.90;;;;;;5129200;27;20520;-72
2023/07/10 08:57:10;;;;;;;20.73;6.18;;;21.40;99.90;;;;;;5119040;27;20135;-72
2023/07/10 09:00:12;;;;;;;31.20;5.47;;;20.40;99.90;;;;;;5117103;27;20047;-72
2023/07/10 09:02:45;;;;;;;30.92;6.97;;;20.90;99.90;;;;;;5138443;27;20491;-71
2023/07/10 09:05:24;;;;;;;27.10;5.57;;;21.30;99.90;;;;;;5124136;27;20081;-72
2023/07/10 09:07:50;;;;;;;27.65;6.53;;;;;;;;;;5137457;27;20447;-72
2023/07/10 09:10:17;;;;;;;37.92;6.28;;;;;;;;;;5144815;27;20413;-72
2023/07/10 09:12:47;;;;;;;32.85;6.00;;;21.00;99.90;;;;;;5105830;27;20039;-72
2023/07/10 09:15:16;;;;;;;29.73;6.97;;;20.30;99.90;;;;;;5145242;27;20070;-72
2023/07/10 09:18:14;;;;;;;32.17;6.13;;;21.20;99.90;;;;;;5150947;27;20071;-72
2023/07/10 09:20:41;;;;;;;23.02;5.30;;;22.00;99.90;;;;;;5122809;27;20067;-72
2023/07/10 09:23:20;;;;;;;27.13;5.57;;;21.70;99.90;;;;;;5134395;27;20043;-72
2023/07/10 09:25:53;;;;;;;33.72;5.43;;;20.90;99.90;;;;;;5123316;27;20445;-72
2023/07/10 09:28:23;;;;;;;36.58;6.32;;;21.70;99.90;;;;;;5143930;27;20534;-71
2023/07/10 09:31:00;;;;;;;36.35;5.45;;;21.90;99.90;;;;;;5147985;27;20043;-71
2023/07/10 09:33:41;;;;;;;34.20;6.78;;;21.90;99.90;;;;;;5141300;27;20047;-71
2023/07/10 09:36:18;;;;;;;33.13;6.28;;;21.70;99.90;;;;;;5137786;27;20168;-71
2023/07/10 09:38:46;;;;;;;36.92;7.07;;;22.00;99.90;;;;;;5128596;28;20054;-71
2023/07/10 09:41:21;;;;;;;34.03;6.55;;;22.00;99.90;;;;;;5140393;27;20046;-71
2023/07/10 09:44:00;;;;;;;26.75;5.72;;;22.10;99.90;;;;;;5118075;27;20043;-72
2023/07/10 09:46:31;;;;;;;24.02;6.03;;;22.10;99.90;;;;;;5137956;27;20039;-71
2023/07/10 09:49:00;;;;;;;32.53;6.37;;;22.20;99.90;;;;;;5139449;27;20117;-71
2023/07/10 09:51:27;;;;;;;19.23;5.20;;;22.00;99.90;;;;;;5139686;27;20375;-71
2023/07/10 09:53:59;;;;;;;27.80;6.32;;;22.10;99.90;;;;;;5117991;27;20134;-71
2023/07/10 09:56:32;;;;;;;37.08;6.43;;;22.30;99.90;;;;;;5142283;27;20030;-71
2023/07/10 09:58:58;;;;;;;30.67;6.05;;;21.20;99.90;;;;;;5144730;27;20475;-71
2023/07/10 10:01:25;;;;;;;29.00;5.85;;;22.30;99.90;;;;;;5102968;27;20121;-71
2023/07/10 10:03:53;;;;;;;39.55;7.43;;;21.20;99.90;;;;;;5144007;27;20051;-71
2023/07/10 10:06:22;;;;;;;28.27;5.85;;;21.80;99.90;;;;;;5123020;27;20037;-71
2023/07/10 10:08:48;;;;;;;29.67;6.57;;;22.10;99.90;;;;;;5142287;27;20033;-71
2023/07/10 10:11:15;;;;;;;30.55;5.60;;;;;;;;;;5142021;27;20042;-71
2023/07/10 10:13:56;;;;;;;33.33;6.32;;;22.10;99.40;;;;;;5115227;28;20042;-71
2023/07/10 10:16:40;;;;;;;28.95;5.68;;;22.20;99.20;;;;;;5144272;27;20105;-71
2023/07/10 10:19:17;;;;;;;27.25;5.50;;;22.30;99.10;;;;;;5122992;27;20332;-71
2023/07/10 10:21:43;;;;;;;26.17;5.40;;;21.80;99.90;;;;;;5133639;27;20066;-71
2023/07/10 10:24:13;;;;;;;35.92;6.07;;;21.40;99.00;;;;;;5121278;27;20462;-71
2023/07/10 10:26:57;;;;;;;29.05;5.05;;;22.60;99.90;;;;;;5147964;27;20038;-71
2023/07/10 10:29:49;;;;;;;29.52;5.22;;;21.70;99.90;;;;;;5108240;27;20179;-71
2023/07/10 10:32:14;;;;;;;29.13;5.72;;;23.00;99.90;;;;;;5132148;27;20035;-71
2023/07/10 10:34:52;;;;;;;21.92;5.10;;;22.50;98.70;;;;;;5122104;27;20364;-70
2023/07/10 10:37:30;;;;;;;39.10;5.65;;;24.40;98.70;;;;;;5130874;27;20043;-71
2023/07/10 10:40:14;;;;;;;30.30;5.85;;;23.60;99.90;;;;;;5148971;27;20075;-71
2023/07/10 10:42:41;;;;;;;23.05;4.70;;;;;;;;;;5124495;27;20047;-71
2023/07/10 10:45:38;;;;;;;21.30;4.57;;;23.50;97.50;;;;;;5120271;27;20044;-71
2023/07/10 10:48:39;;;;;;;24.15;5.13;;;23.20;99.90;;;;;;5128086;27;20082;-71
2023/07/10 10:51:20;;;;;;;27.80;5.35;;;24.00;99.90;;;;;;5036997;28;20072;-71
2023/07/10 10:54:18;;;;;;;31.05;5.15;;;23.60;97.80;;;;;;5128042;27;20403;-71
2023/07/10 10:57:11;;;;;;;27.92;4.60;;;23.60;99.90;;;;;;5152630;27;20031;-71
2023/07/10 11:00:05;;;;;;;23.48;4.13;;;23.70;96.10;;;;;;5157660;27;20083;-71
2023/07/10 11:02:31;;;;;;;30.10;5.07;;;;;;;;;;5138756;27;20042;-71
2023/07/10 11:05:11;;;;;;;28.77;4.10;;;24.00;99.90;;;;;;5157663;27;20050;-70
2023/07/10 11:07:40;;;;;;;18.70;4.32;;;23.70;99.90;;;;;;5136683;27;20119;-71
2023/07/10 11:10:15;;;;;;;29.40;5.15;;;23.70;94.80;;;;;;5101206;27;20483;-71
2023/07/10 11:12:41;;;;;;;29.83;5.15;;;23.70;96.30;;;;;;5136390;27;20495;-71
2023/07/10 11:15:21;;;;;;;21.25;4.45;;;24.30;99.90;;;;;;5136320;27;20078;-71
2023/07/10 11:17:51;;;;;;;21.88;3.67;;;24.70;99.90;;;;;;5135702;27;20511;-71
2023/07/10 11:20:18;;;;;;;20.27;3.88;;;24.50;99.40;;;;;;5119176;27;20100;-71
2023/07/10 11:22:53;;;;;;;21.80;3.85;;;24.60;93.70;;;;;;5157365;27;20391;-71
2023/07/10 11:25:35;;;;;;;26.58;4.50;;;25.00;96.80;;;;;;5130102;27;20035;-71
2023/07/10 11:28:03;;;;;;;24.48;4.20;;;24.40;94.30;;;;;;5139809;27;20050;-71
2023/07/10 11:30:32;;;;;;;19.02;4.35;;;24.00;98.90;;;;;;5127869;27;20037;-71
2023/07/10 11:33:16;;;;;;;25.73;4.35;;;24.40;94.30;;;;;;5137464;27;20102;-71
2023/07/10 11:36:30;;;;;;;30.58;6.30;;;24.60;93.30;;;;;;5142691;27;20041;-71
2023/07/10 11:39:05;;;;;;;25.80;3.90;;;24.80;94.40;;;;;;5114350;27;20093;-71
2023/07/10 11:41:35;;;;;;;27.75;3.63;;;24.50;94.20;;;;;;5117603;27;20046;-71
2023/07/10 11:44:31;;;;;;;25.20;4.45;;;23.50;97.90;;;;;;5126810;27;20039;-71
2023/07/10 11:47:05;;;;;;;18.23;4.15;;;23.60;98.20;;;;;;5118273;27;20560;-75
2023/07/10 11:49:40;;;;;;;27.33;4.85;;;23.30;94.80;;;;;;5117518;27;20481;-75
2023/07/10 11:52:14;;;;;;;20.13;4.28;;;23.40;94.40;;;;;;5127190;27;20083;-75
2023/07/10 11:54:40;;;;;;;19.52;4.43;;;23.90;98.40;;;;;;5127830;27;20134;-75
2023/07/10 11:57:11;;;;;;;18.85;4.00;;;23.70;98.00;;;;;;5137962;27;20034;-75
2023/07/10 11:59:59;;;;;;;23.25;3.95;;;24.00;93.30;;;;;;5137313;27;20041;-75
2023/07/10 12:02:30;;;;;;;26.23;4.65;;;24.50;98.10;;;;;;5113405;27;20495;-75
2023/07/10 12:04:59;;;;;;;20.67;4.40;;;24.20;93.30;;;;;;5121740;27;20043;-75
2023/07/10 12:07:25;;;;;;;13.63;3.70;;;24.60;94.00;;;;;;5124011;27;20118;-75
2023/07/10 12:09:52;;;;;;;22.90;3.85;;;24.10;92.10;;;;;;5123888;27;20139;-75
2023/07/10 12:12:18;;;;;;;19.10;3.80;;;23.70;96.90;;;;;;5132737;27;20039;-75
2023/07/10 12:14:44;;;;;;;21.58;3.90;;;24.90;96.30;;;;;;5118832;27;20051;-74
2023/07/10 12:17:18;;;;;;;25.85;4.10;;;24.10;95.50;;;;;;5113771;28;20038;-75
2023/07/10 12:19:45;;;;;;;15.55;3.50;;;24.90;94.10;;;;;;5129056;27;20040;-75
2023/07/10 12:22:21;;;;;;;17.23;3.53;;;24.20;94.40;;;;;;5096831;28;20051;-75
2023/07/10 12:25:00;;;;;;;16.05;3.13;;;24.70;85.40;;;;;;5113617;28;20105;-75
2023/07/10 12:27:32;;;;;;;17.15;3.42;;;25.30;93.50;;;;;;5113060;28;20047;-75
2023/07/10 12:29:58;;;;;;;21.70;3.38;;;24.90;93.40;;;;;;5113248;28;20039;-76
2023/07/10 12:32:26;;;;;;;17.65;3.65;;;24.60;92.70;;;;;;5113024;28;20055;-71
2023/07/10 12:34:54;;;;;;;19.58;3.10;;;24.50;92.60;;;;;;5096523;28;20407;-71
2023/07/10 12:37:20;;;;;;;22.58;3.47;;;25.40;92.90;;;;;;5096236;28;20035;-71
2023/07/10 12:39:51;;;;;;;13.75;2.90;;;25.00;82.50;;;;;;5096308;28;20495;-71
2023/07/10 12:42:36;;;;;;;10.82;2.53;;;25.20;79.30;;;;;;5112943;28;20038;-71
2023/07/10 12:45:07;;;;;;;12.00;2.97;;;24.80;84.90;;;;;;5112792;28;20043;-71
2023/07/10 12:47:34;;;;;;;20.90;3.20;;;25.00;80.50;;;;;;5095624;28;20050;-72
2023/07/10 12:50:00;;;;;;;15.52;2.38;;;25.40;90.40;;;;;;5115126;27;20365;-73
2023/07/10 12:52:34;;;;;;;15.75;3.03;;;25.10;79.80;;;;;;5118775;27;20035;-70
2023/07/10 12:55:03;;;;;;;10.70;2.53;;;25.10;77.90;;;;;;5110971;28;20567;-71
2023/07/10 12:57:32;;;;;;;16.35;2.60;;;25.00;78.90;;;;;;5120338;27;20503;-72
2023/07/10 13:00:07;;;;;;;17.52;3.83;;;25.20;77.20;;;;;;5121561;27;20039;-71
2023/07/10 13:02:42;;;;;;;17.40;3.70;;;24.40;88.80;;;;;;5115472;27;20051;-72
2023/07/10 13:05:21;;;;;;;14.57;3.47;;;24.80;90.00;;;;;;5095881;28;20118;-75
2023/07/10 13:07:51;;;;;;;20.55;3.45;;;25.20;89.50;;;;;;5112942;28;20036;-75
2023/07/10 13:10:51;;;;;;;13.80;3.47;;;25.70;81.10;;;;;;5119302;27;20046;-75
2023/07/10 13:13:19;;;;;;;19.30;3.10;;;24.80;89.60;;;;;;5063829;27;20143;-76
2023/07/10 13:15:46;;;;;;;13.63;2.83;;;25.20;89.00;;;;;;5120469;27;20043;-76